sensor_id;sensor_type;location;lat;lon;timestamp;pressure;altitude;pressure_sealevel;temperature;humidity
61345;BME280;47216;42.656;23.232;2023-08-31T00:01:55;93417.31;;;19.03;59.48
61345;BME280;47216;42.656;23.232;2023-08-31T00:04:23;93422.28;;;18.96;59.92
61345;BME280;47216;42.656;23.232;2023-08-31T00:06:50;93417.31;;;18.85;60.10
61345;BME280;47216;42.656;23.232;2023-08-31T00:09:17;93411.72;;;18.96;60.21
61345;BME280;47216;42.656;23.232;2023-08-31T00:11:44;93423.81;;;18.97;60.36
61345;BME280;47216;42.656;23.232;2023-08-31T00:14:11;93414.81;;;18.98;60.37
61345;BME280;47216;42.656;23.232;2023-08-31T00:16:37;93411.84;;;18.99;60.59
61345;BME280;47216;42.656;23.232;2023-08-31T00:19:04;93406.72;;;19.03;60.60
61345;BME280;47216;42.656;23.232;2023-08-31T00:21:32;93404.88;;;19.12;60.07
61345;BME280;47216;42.656;23.232;2023-08-31T00:23:59;93407.97;;;19.14;60.24
61345;BME280;47216;42.656;23.232;2023-08-31T00:26:26;93420.25;;;19.19;59.72
61345;BME280;47216;42.656;23.232;2023-08-31T00:28:54;93416.84;;;19.18;59.61
61345;BME280;47216;42.656;23.232;2023-08-31T00:31:21;93423.97;;;19.26;59.52
61345;BME280;47216;42.656;23.232;2023-08-31T00:33:48;93423.03;;;19.31;59.45
61345;BME280;47216;42.656;23.232;2023-08-31T00:36:14;93435.66;;;19.25;59.52
61345;BME280;47216;42.656;23.232;2023-08-31T00:38:44;93431.44;;;19.24;59.44
61345;BME280;47216;42.656;23.232;2023-08-31T00:41:12;93421.81;;;19.20;59.81
61345;BME280;47216;42.656;23.232;2023-08-31T00:43:38;93434.56;;;19.26;59.91
61345;BME280;47216;42.656;23.232;2023-08-31T00:46:06;93430.84;;;19.27;59.88
61345;BME280;47216;42.656;23.232;2023-08-31T00:48:32;93433.16;;;19.38;59.46
61345;BME280;47216;42.656;23.232;2023-08-31T00:50:59;93424.44;;;19.28;59.61
61345;BME280;47216;42.656;23.232;2023-08-31T00:53:27;93429.09;;;19.31;59.58
61345;BME280;47216;42.656;23.232;2023-08-31T00:55:55;93433.47;;;19.27;59.50
61345;BME280;47216;42.656;23.232;2023-08-31T00:58:22;93428.03;;;19.24;59.59
61345;BME280;47216;42.656;23.232;2023-08-31T01:00:58;93429.28;;;19.26;59.53
61345;BME280;47216;42.656;23.232;2023-08-31T01:03:35;93435.97;;;19.33;60.09
61345;BME280;47216;42.656;23.232;2023-08-31T01:06:11;93439.06;;;19.35;59.88
61345;BME280;47216;42.656;23.232;2023-08-31T01:08:46;93431.28;;;19.38;59.54
61345;BME280;47216;42.656;23.232;2023-08-31T01:11:21;93428.03;;;19.41;59.29
61345;BME280;47216;42.656;23.232;2023-08-31T01:13:53;93433.78;;;19.35;59.80
61345;BME280;47216;42.656;23.232;2023-08-31T01:16:24;93438.13;;;19.39;59.93
61345;BME280;47216;42.656;23.232;2023-08-31T01:18:52;93439.22;;;19.38;60.06
61345;BME280;47216;42.656;23.232;2023-08-31T01:21:25;93439.38;;;19.42;59.41
61345;BME280;47216;42.656;23.232;2023-08-31T01:23:57;93440.00;;;19.47;59.73
61345;BME280;47216;42.656;23.232;2023-08-31T01:26:24;93438.44;;;19.55;59.58
61345;BME280;47216;42.656;23.232;2023-08-31T01:28:52;93440.44;;;19.58;59.50
61345;BME280;47216;42.656;23.232;2023-08-31T01:31:19;93444.03;;;19.62;59.30
61345;BME280;47216;42.656;23.232;2023-08-31T01:33:46;93434.06;;;19.59;59.31
61345;BME280;47216;42.656;23.232;2023-08-31T01:36:17;93440.75;;;19.65;58.75
61345;BME280;47216;42.656;23.232;2023-08-31T01:38:52;93435.47;;;19.57;58.90
61345;BME280;47216;42.656;23.232;2023-08-31T01:41:24;93438.91;;;19.57;58.89
61345;BME280;47216;42.656;23.232;2023-08-31T01:43:53;93430.66;;;19.50;59.11
61345;BME280;47216;42.656;23.232;2023-08-31T01:46:20;93430.34;;;19.43;59.24
61345;BME280;47216;42.656;23.232;2023-08-31T01:48:47;93430.97;;;19.40;59.60
61345;BME280;47216;42.656;23.232;2023-08-31T01:51:15;93429.56;;;19.34;59.53
61345;BME280;47216;42.656;23.232;2023-08-31T01:53:42;93443.25;;;19.27;59.81
61345;BME280;47216;42.656;23.232;2023-08-31T01:56:10;93439.84;;;19.26;60.46
61345;BME280;47216;42.656;23.232;2023-08-31T01:58:38;93438.13;;;19.30;59.81
61345;BME280;47216;42.656;23.232;2023-08-31T02:01:04;93439.38;;;19.24;59.79
61345;BME280;47216;42.656;23.232;2023-08-31T02:03:31;93444.53;;;19.21;60.26
61345;BME280;47216;42.656;23.232;2023-08-31T02:05:58;93453.66;;;19.06;60.33
61345;BME280;47216;42.656;23.232;2023-08-31T02:08:24;93453.03;;;18.92;60.39
61345;BME280;47216;42.656;23.232;2023-08-31T02:10:51;93453.94;;;18.78;60.90
61345;BME280;47216;42.656;23.232;2023-08-31T02:13:19;93462.59;;;18.70;61.25
61345;BME280;47216;42.656;23.232;2023-08-31T02:15:51;93464.44;;;18.61;61.36
61345;BME280;47216;42.656;23.232;2023-08-31T02:18:20;93453.22;;;18.46;61.90
61345;BME280;47216;42.656;23.232;2023-08-31T02:20:47;93460.06;;;18.47;62.18
61345;BME280;47216;42.656;23.232;2023-08-31T02:23:14;93469.66;;;18.43;62.23
61345;BME280;47216;42.656;23.232;2023-08-31T02:25:40;93462.31;;;18.32;62.54
61345;BME280;47216;42.656;23.232;2023-08-31T02:28:07;93460.78;;;18.31;62.79
61345;BME280;47216;42.656;23.232;2023-08-31T02:30:34;93454.50;;;18.18;62.53
61345;BME280;47216;42.656;23.232;2023-08-31T02:33:02;93447.22;;;18.15;63.06
61345;BME280;47216;42.656;23.232;2023-08-31T02:35:29;93444.09;;;18.13;63.23
61345;BME280;47216;42.656;23.232;2023-08-31T02:37:56;93454.78;;;18.08;63.33
61345;BME280;47216;42.656;23.232;2023-08-31T02:40:23;93448.84;;;18.02;63.33
61345;BME280;47216;42.656;23.232;2023-08-31T02:42:50;93449.66;;;18.02;63.64
61345;BME280;47216;42.656;23.232;2023-08-31T02:45:17;93448.84;;;18.02;63.50
61345;BME280;47216;42.656;23.232;2023-08-31T02:47:44;93447.94;;;18.06;63.41
61345;BME280;47216;42.656;23.232;2023-08-31T02:50:12;93453.69;;;18.09;63.23
61345;BME280;47216;42.656;23.232;2023-08-31T02:52:40;93458.97;;;18.09;63.20
61345;BME280;47216;42.656;23.232;2023-08-31T02:55:07;93459.25;;;17.98;63.15
61345;BME280;47216;42.656;23.232;2023-08-31T02:57:35;93473.19;;;17.76;63.76
61345;BME280;47216;42.656;23.232;2023-08-31T03:00:02;93475.78;;;17.68;64.25
61345;BME280;47216;42.656;23.232;2023-08-31T03:02:34;93475.78;;;17.68;64.19
61345;BME280;47216;42.656;23.232;2023-08-31T03:05:01;93486.56;;;17.80;64.06
61345;BME280;47216;42.656;23.232;2023-08-31T03:07:30;93479.94;;;17.82;64.03
61345;BME280;47216;42.656;23.232;2023-08-31T03:09:56;93481.53;;;17.92;63.55
61345;BME280;47216;42.656;23.232;2023-08-31T03:12:23;93482.66;;;18.00;63.33
61345;BME280;47216;42.656;23.232;2023-08-31T03:14:50;93478.41;;;17.90;63.52
61345;BME280;47216;42.656;23.232;2023-08-31T03:17:17;93486.66;;;17.89;63.47
61345;BME280;47216;42.656;23.232;2023-08-31T03:19:43;93483.22;;;17.88;63.36
61345;BME280;47216;42.656;23.232;2023-08-31T03:22:10;93482.97;;;17.76;63.64
61345;BME280;47216;42.656;23.232;2023-08-31T03:24:38;93484.78;;;17.67;63.92
61345;BME280;47216;42.656;23.232;2023-08-31T03:27:05;93480.31;;;17.53;64.46
61345;BME280;47216;42.656;23.232;2023-08-31T03:29:32;93486.91;;;17.42;64.85
61345;BME280;47216;42.656;23.232;2023-08-31T03:32:00;93482.38;;;17.34;65.10
61345;BME280;47216;42.656;23.232;2023-08-31T03:34:28;93480.22;;;17.36;65.03
61345;BME280;47216;42.656;23.232;2023-08-31T03:36:55;93477.78;;;17.26;65.08
61345;BME280;47216;42.656;23.232;2023-08-31T03:39:23;93478.50;;;17.17;65.41
61345;BME280;47216;42.656;23.232;2023-08-31T03:41:51;93484.03;;;17.30;65.28
61345;BME280;47216;42.656;23.232;2023-08-31T03:44:18;93485.00;;;17.34;64.77
61345;BME280;47216;42.656;23.232;2023-08-31T03:46:44;93485.50;;;17.36;65.14
61345;BME280;47216;42.656;23.232;2023-08-31T03:49:11;93481.47;;;17.38;65.05
61345;BME280;47216;42.656;23.232;2023-08-31T03:51:38;93491.25;;;17.38;65.02
61345;BME280;47216;42.656;23.232;2023-08-31T03:54:05;93495.25;;;17.35;64.75
61345;BME280;47216;42.656;23.232;2023-08-31T03:56:32;93491.41;;;17.41;64.71
61345;BME280;47216;42.656;23.232;2023-08-31T03:59:02;93495.38;;;17.53;64.23
61345;BME280;47216;42.656;23.232;2023-08-31T04:01:29;93489.31;;;17.52;64.29
61345;BME280;47216;42.656;23.232;2023-08-31T04:03:56;93506.59;;;17.58;64.08
61345;BME280;47216;42.656;23.232;2023-08-31T04:06:23;93517.50;;;17.66;63.78
61345;BME280;47216;42.656;23.232;2023-08-31T04:08:50;93525.06;;;17.81;63.75
61345;BME280;47216;42.656;23.232;2023-08-31T04:11:17;93536.47;;;17.90;62.79
61345;BME280;47216;42.656;23.232;2023-08-31T04:13:43;93531.38;;;17.94;62.52
61345;BME280;47216;42.656;23.232;2023-08-31T04:16:11;93537.13;;;17.96;62.41
61345;BME280;47216;42.656;23.232;2023-08-31T04:18:38;93537.28;;;17.99;61.79
61345;BME280;47216;42.656;23.232;2023-08-31T04:21:05;93537.53;;;18.12;61.85
61345;BME280;47216;42.656;23.232;2023-08-31T04:23:32;93547.84;;;18.22;62.01
61345;BME280;47216;42.656;23.232;2023-08-31T04:25:59;93547.56;;;18.32;61.73
61345;BME280;47216;42.656;23.232;2023-08-31T04:28:26;93555.38;;;18.37;61.81
61345;BME280;47216;42.656;23.232;2023-08-31T04:30:52;93553.38;;;18.43;61.42
61345;BME280;47216;42.656;23.232;2023-08-31T04:33:20;93553.25;;;18.48;61.68
61345;BME280;47216;42.656;23.232;2023-08-31T04:35:50;93559.03;;;18.59;61.42
61345;BME280;47216;42.656;23.232;2023-08-31T04:38:16;93558.84;;;18.55;61.20
61345;BME280;47216;42.656;23.232;2023-08-31T04:40:43;93559.19;;;18.54;61.57
61345;BME280;47216;42.656;23.232;2023-08-31T04:43:10;93559.03;;;18.59;61.28
61345;BME280;47216;42.656;23.232;2023-08-31T04:45:36;93563.50;;;18.50;61.46
61345;BME280;47216;42.656;23.232;2023-08-31T04:48:04;93568.00;;;18.49;61.40
61345;BME280;47216;42.656;23.232;2023-08-31T04:50:32;93563.88;;;18.34;61.53
61345;BME280;47216;42.656;23.232;2023-08-31T04:52:59;93568.69;;;18.32;62.10
61345;BME280;47216;42.656;23.232;2023-08-31T04:55:25;93566.72;;;18.38;62.48
61345;BME280;47216;42.656;23.232;2023-08-31T04:57:52;93567.97;;;18.40;62.22
61345;BME280;47216;42.656;23.232;2023-08-31T05:00:19;93566.53;;;18.34;62.74
61345;BME280;47216;42.656;23.232;2023-08-31T05:02:46;93567.91;;;18.32;62.79
61345;BME280;47216;42.656;23.232;2023-08-31T05:05:12;93573.59;;;18.47;62.37
61345;BME280;47216;42.656;23.232;2023-08-31T05:07:41;93578.16;;;18.56;62.45
61345;BME280;47216;42.656;23.232;2023-08-31T05:10:09;93584.72;;;18.67;62.04
61345;BME280;47216;42.656;23.232;2023-08-31T05:12:36;93582.91;;;18.76;61.59
61345;BME280;47216;42.656;23.232;2023-08-31T05:15:04;93584.19;;;18.87;61.51
61345;BME280;47216;42.656;23.232;2023-08-31T05:17:31;93587.66;;;18.97;60.98
61345;BME280;47216;42.656;23.232;2023-08-31T05:19:57;93584.41;;;19.08;60.98
61345;BME280;47216;42.656;23.232;2023-08-31T05:22:24;93579.78;;;19.14;60.87
61345;BME280;47216;42.656;23.232;2023-08-31T05:24:52;93585.25;;;19.26;60.49
61345;BME280;47216;42.656;23.232;2023-08-31T05:27:19;93580.28;;;19.34;60.16
61345;BME280;47216;42.656;23.232;2023-08-31T05:29:46;93570.38;;;19.48;60.18
61345;BME280;47216;42.656;23.232;2023-08-31T05:32:12;93575.34;;;19.58;60.08
61345;BME280;47216;42.656;23.232;2023-08-31T05:34:39;93572.59;;;19.72;59.20
61345;BME280;47216;42.656;23.232;2023-08-31T05:37:06;93566.84;;;19.87;59.33
61345;BME280;47216;42.656;23.232;2023-08-31T05:39:33;93562.63;;;19.95;58.73
61345;BME280;47216;42.656;23.232;2023-08-31T05:42:01;93565.41;;;20.07;58.44
61345;BME280;47216;42.656;23.232;2023-08-31T05:44:28;93566.94;;;20.26;58.61
61345;BME280;47216;42.656;23.232;2023-08-31T05:46:55;93565.97;;;20.39;58.56
61345;BME280;47216;42.656;23.232;2023-08-31T05:49:22;93566.56;;;20.53;57.86
61345;BME280;47216;42.656;23.232;2023-08-31T05:51:49;93567.78;;;20.65;57.34
61345;BME280;47216;42.656;23.232;2023-08-31T05:54:16;93566.03;;;20.77;57.19
61345;BME280;47216;42.656;23.232;2023-08-31T05:56:42;93566.00;;;20.86;56.76
61345;BME280;47216;42.656;23.232;2023-08-31T05:59:11;93567.66;;;20.99;55.92
61345;BME280;47216;42.656;23.232;2023-08-31T06:01:37;93574.16;;;21.11;55.67
61345;BME280;47216;42.656;23.232;2023-08-31T06:04:04;93573.03;;;21.12;55.03
61345;BME280;47216;42.656;23.232;2023-08-31T06:08:59;93574.19;;;21.32;54.04
61345;BME280;47216;42.656;23.232;2023-08-31T06:11:25;93579.16;;;21.42;54.30
61345;BME280;47216;42.656;23.232;2023-08-31T06:13:52;93587.84;;;21.51;54.33
61345;BME280;47216;42.656;23.232;2023-08-31T06:16:20;93578.25;;;21.59;54.48
61345;BME280;47216;42.656;23.232;2023-08-31T06:18:48;93582.28;;;21.65;54.23
61345;BME280;47216;42.656;23.232;2023-08-31T06:21:15;93587.84;;;21.72;53.66
61345;BME280;47216;42.656;23.232;2023-08-31T06:23:41;93587.97;;;21.76;52.67
61345;BME280;47216;42.656;23.232;2023-08-31T06:26:08;93592.25;;;21.89;52.16
61345;BME280;47216;42.656;23.232;2023-08-31T06:28:35;93594.84;;;21.98;52.20
61345;BME280;47216;42.656;23.232;2023-08-31T06:31:02;93600.41;;;22.05;51.78
61345;BME280;47216;42.656;23.232;2023-08-31T06:33:31;93604.53;;;22.15;51.64
61345;BME280;47216;42.656;23.232;2023-08-31T06:35:57;93597.31;;;22.24;52.02
61345;BME280;47216;42.656;23.232;2023-08-31T06:38:24;93602.84;;;22.31;52.02
61345;BME280;47216;42.656;23.232;2023-08-31T06:40:51;93607.63;;;22.38;51.48
61345;BME280;47216;42.656;23.232;2023-08-31T06:43:20;93610.09;;;22.43;51.04
61345;BME280;47216;42.656;23.232;2023-08-31T06:45:46;93607.66;;;22.50;50.71
61345;BME280;47216;42.656;23.232;2023-08-31T06:48:13;93603.72;;;22.56;50.66
61345;BME280;47216;42.656;23.232;2023-08-31T06:50:41;93614.47;;;22.60;49.83
61345;BME280;47216;42.656;23.232;2023-08-31T06:53:08;93612.44;;;22.57;48.47
61345;BME280;47216;42.656;23.232;2023-08-31T06:55:35;93610.03;;;22.64;48.56
61345;BME280;47216;42.656;23.232;2023-08-31T06:58:02;93612.91;;;22.59;48.52
61345;BME280;47216;42.656;23.232;2023-08-31T07:00:29;93615.47;;;22.68;47.94
61345;BME280;47216;42.656;23.232;2023-08-31T07:02:57;93617.03;;;22.69;47.56
61345;BME280;47216;42.656;23.232;2023-08-31T07:05:25;93632.78;;;22.74;48.17
61345;BME280;47216;42.656;23.232;2023-08-31T07:07:55;93616.25;;;22.68;47.28
61345;BME280;47216;42.656;23.232;2023-08-31T07:10:22;93616.38;;;22.72;46.24
61345;BME280;47216;42.656;23.232;2023-08-31T07:12:48;93619.91;;;22.76;46.67
61345;BME280;47216;42.656;23.232;2023-08-31T07:15:16;93621.50;;;22.89;46.46
61345;BME280;47216;42.656;23.232;2023-08-31T07:17:42;93625.94;;;22.97;47.40
61345;BME280;47216;42.656;23.232;2023-08-31T07:20:10;93633.69;;;22.90;46.30
61345;BME280;47216;42.656;23.232;2023-08-31T07:22:37;93629.03;;;22.87;46.68
61345;BME280;47216;42.656;23.232;2023-08-31T07:25:07;93629.81;;;22.88;46.91
61345;BME280;47216;42.656;23.232;2023-08-31T07:27:35;93629.91;;;22.91;46.78
61345;BME280;47216;42.656;23.232;2023-08-31T07:30:02;93630.69;;;22.92;47.16
61345;BME280;47216;42.656;23.232;2023-08-31T07:32:29;93629.53;;;23.01;46.60
61345;BME280;47216;42.656;23.232;2023-08-31T07:34:56;93632.63;;;23.03;46.63
61345;BME280;47216;42.656;23.232;2023-08-31T07:37:23;93639.97;;;23.06;46.47
61345;BME280;47216;42.656;23.232;2023-08-31T07:39:49;93636.19;;;23.20;46.03
61345;BME280;47216;42.656;23.232;2023-08-31T07:42:18;93643.06;;;23.21;46.18
61345;BME280;47216;42.656;23.232;2023-08-31T07:44:45;93644.28;;;23.23;46.24
61345;BME280;47216;42.656;23.232;2023-08-31T07:47:12;93644.19;;;23.32;46.39
61345;BME280;47216;42.656;23.232;2023-08-31T07:49:38;93652.41;;;23.27;46.65
61345;BME280;47216;42.656;23.232;2023-08-31T07:52:05;93644.28;;;23.36;47.00
61345;BME280;47216;42.656;23.232;2023-08-31T07:54:32;93651.72;;;23.42;46.90
61345;BME280;47216;42.656;23.232;2023-08-31T07:56:59;93642.75;;;23.59;45.88
61345;BME280;47216;42.656;23.232;2023-08-31T07:59:27;93642.16;;;23.66;45.57
61345;BME280;47216;42.656;23.232;2023-08-31T08:01:54;93652.72;;;23.62;45.81
61345;BME280;47216;42.656;23.232;2023-08-31T08:04:21;93644.59;;;23.59;46.62
61345;BME280;47216;42.656;23.232;2023-08-31T08:06:49;93650.16;;;23.66;45.87
61345;BME280;47216;42.656;23.232;2023-08-31T08:09:16;93643.28;;;23.77;45.66
61345;BME280;47216;42.656;23.232;2023-08-31T08:11:44;93647.81;;;23.89;45.36
61345;BME280;47216;42.656;23.232;2023-08-31T08:14:10;93657.03;;;23.79;43.48
61345;BME280;47216;42.656;23.232;2023-08-31T08:16:38;93655.50;;;23.78;44.18
61345;BME280;47216;42.656;23.232;2023-08-31T08:19:06;93646.31;;;23.76;44.03
61345;BME280;47216;42.656;23.232;2023-08-31T08:21:33;93648.16;;;23.75;42.34
61345;BME280;47216;42.656;23.232;2023-08-31T08:24:00;93648.16;;;23.87;43.75
61345;BME280;47216;42.656;23.232;2023-08-31T08:26:28;93643.72;;;23.92;41.87
61345;BME280;47216;42.656;23.232;2023-08-31T08:28:55;93648.56;;;24.02;42.24
61345;BME280;47216;42.656;23.232;2023-08-31T08:31:22;93646.19;;;24.25;42.05
61345;BME280;47216;42.656;23.232;2023-08-31T08:33:50;93652.59;;;24.24;41.66
61345;BME280;47216;42.656;23.232;2023-08-31T08:36:16;93642.25;;;24.35;40.73
61345;BME280;47216;42.656;23.232;2023-08-31T08:38:43;93647.13;;;24.45;40.86
61345;BME280;47216;42.656;23.232;2023-08-31T08:41:10;93649.69;;;24.69;40.94
61345;BME280;47216;42.656;23.232;2023-08-31T08:43:37;93641.25;;;24.67;40.89
61345;BME280;47216;42.656;23.232;2023-08-31T08:46:06;93646.69;;;24.71;38.35
61345;BME280;47216;42.656;23.232;2023-08-31T08:48:34;93649.25;;;24.67;37.45
61345;BME280;47216;42.656;23.232;2023-08-31T08:51:03;93654.31;;;24.57;38.39
61345;BME280;47216;42.656;23.232;2023-08-31T08:53:30;93647.47;;;24.71;38.45
61345;BME280;47216;42.656;23.232;2023-08-31T08:55:57;93647.50;;;24.87;38.99
61345;BME280;47216;42.656;23.232;2023-08-31T08:58:24;93653.25;;;24.89;38.55
61345;BME280;47216;42.656;23.232;2023-08-31T09:00:52;93657.31;;;24.99;38.23
61345;BME280;47216;42.656;23.232;2023-08-31T09:03:20;93651.81;;;25.08;38.30
61345;BME280;47216;42.656;23.232;2023-08-31T09:05:47;93645.28;;;25.05;37.97
61345;BME280;47216;42.656;23.232;2023-08-31T09:08:15;93647.34;;;25.12;38.78
61345;BME280;47216;42.656;23.232;2023-08-31T09:10:43;93640.72;;;25.06;38.67
61345;BME280;47216;42.656;23.232;2023-08-31T09:13:11;93652.41;;;25.01;38.94
61345;BME280;47216;42.656;23.232;2023-08-31T09:15:42;93638.19;;;24.97;38.78
61345;BME280;47216;42.656;23.232;2023-08-31T09:18:14;93639.78;;;25.14;38.13
61345;BME280;47216;42.656;23.232;2023-08-31T09:20:45;93651.00;;;25.20;38.83
61345;BME280;47216;42.656;23.232;2023-08-31T09:23:12;93639.78;;;25.30;37.91
61345;BME280;47216;42.656;23.232;2023-08-31T09:25:44;93642.88;;;25.32;39.12
61345;BME280;47216;42.656;23.232;2023-08-31T09:28:14;93643.84;;;25.40;38.34
61345;BME280;47216;42.656;23.232;2023-08-31T09:30:41;93643.56;;;25.61;38.97
61345;BME280;47216;42.656;23.232;2023-08-31T09:33:09;93639.59;;;25.54;37.85
61345;BME280;47216;42.656;23.232;2023-08-31T09:35:39;93638.56;;;25.59;37.89
61345;BME280;47216;42.656;23.232;2023-08-31T09:38:09;93645.41;;;25.76;38.05
61345;BME280;47216;42.656;23.232;2023-08-31T09:40:37;93643.88;;;25.75;37.43
61345;BME280;47216;42.656;23.232;2023-08-31T09:43:05;93643.41;;;25.53;37.93
61345;BME280;47216;42.656;23.232;2023-08-31T09:45:33;93641.50;;;25.38;37.40
61345;BME280;47216;42.656;23.232;2023-08-31T09:48:01;93647.34;;;25.28;37.62
61345;BME280;47216;42.656;23.232;2023-08-31T09:50:29;93649.94;;;25.24;37.29
61345;BME280;47216;42.656;23.232;2023-08-31T09:53:00;93651.84;;;25.24;37.32
61345;BME280;47216;42.656;23.232;2023-08-31T09:55:28;93646.84;;;25.38;37.14
61345;BME280;47216;42.656;23.232;2023-08-31T09:57:56;93646.41;;;25.52;37.99
61345;BME280;47216;42.656;23.232;2023-08-31T10:00:25;93645.09;;;25.62;36.45
61345;BME280;47216;42.656;23.232;2023-08-31T10:02:54;93647.31;;;25.75;37.02
61345;BME280;47216;42.656;23.232;2023-08-31T10:05:22;93636.88;;;25.86;36.02
61345;BME280;47216;42.656;23.232;2023-08-31T10:07:50;93631.44;;;25.98;35.63
61345;BME280;47216;42.656;23.232;2023-08-31T10:10:18;93642.25;;;26.06;34.58
61345;BME280;47216;42.656;23.232;2023-08-31T10:12:47;93632.50;;;26.13;34.16
61345;BME280;47216;42.656;23.232;2023-08-31T10:15:15;93624.97;;;26.19;34.98
61345;BME280;47216;42.656;23.232;2023-08-31T10:17:43;93628.78;;;26.37;35.12
61345;BME280;47216;42.656;23.232;2023-08-31T10:20:11;93637.16;;;26.16;34.29
61345;BME280;47216;42.656;23.232;2023-08-31T10:22:38;93631.56;;;26.06;35.07
61345;BME280;47216;42.656;23.232;2023-08-31T10:25:06;93642.06;;;25.95;35.34
61345;BME280;47216;42.656;23.232;2023-08-31T10:27:36;93644.34;;;25.96;35.75
61345;BME280;47216;42.656;23.232;2023-08-31T10:30:24;93629.81;;;25.94;35.26
61345;BME280;47216;42.656;23.232;2023-08-31T10:33:21;93633.34;;;25.82;35.29
61345;BME280;47216;42.656;23.232;2023-08-31T10:35:50;93646.66;;;25.63;34.54
61345;BME280;47216;42.656;23.232;2023-08-31T10:38:23;93646.03;;;25.69;35.76
61345;BME280;47216;42.656;23.232;2023-08-31T10:41:20;93650.06;;;25.79;34.59
61345;BME280;47216;42.656;23.232;2023-08-31T10:43:49;93649.22;;;25.75;34.79
61345;BME280;47216;42.656;23.232;2023-08-31T10:46:27;93652.31;;;25.77;35.20
61345;BME280;47216;42.656;23.232;2023-08-31T10:48:57;93651.34;;;25.85;35.17
61345;BME280;47216;42.656;23.232;2023-08-31T10:51:26;93644.88;;;25.86;35.33
61345;BME280;47216;42.656;23.232;2023-08-31T10:54:04;93643.50;;;25.92;35.06
61345;BME280;47216;42.656;23.232;2023-08-31T10:56:31;93642.41;;;26.13;35.24
61345;BME280;47216;42.656;23.232;2023-08-31T10:58:59;93638.75;;;26.21;34.91
61345;BME280;47216;42.656;23.232;2023-08-31T11:01:51;93644.13;;;26.21;36.41
61345;BME280;47216;42.656;23.232;2023-08-31T11:04:19;93655.50;;;26.37;36.58
61345;BME280;47216;42.656;23.232;2023-08-31T11:06:46;93651.28;;;26.17;37.19
61345;BME280;47216;42.656;23.232;2023-08-31T11:09:19;93656.28;;;26.18;36.84
61345;BME280;47216;42.656;23.232;2023-08-31T11:11:46;93658.19;;;26.18;36.69
61345;BME280;47216;42.656;23.232;2023-08-31T11:14:13;93662.16;;;26.08;36.56
61345;BME280;47216;42.656;23.232;2023-08-31T11:16:41;93667.88;;;26.07;37.06
61345;BME280;47216;42.656;23.232;2023-08-31T11:19:08;93663.09;;;26.16;35.62
61345;BME280;47216;42.656;23.232;2023-08-31T11:21:37;93657.91;;;26.23;35.90
61345;BME280;47216;42.656;23.232;2023-08-31T11:24:04;93661.78;;;26.26;35.38
61345;BME280;47216;42.656;23.232;2023-08-31T11:26:32;93663.88;;;26.16;35.49
61345;BME280;47216;42.656;23.232;2023-08-31T11:28:59;93666.59;;;26.20;35.95
61345;BME280;47216;42.656;23.232;2023-08-31T11:31:26;93660.28;;;26.28;35.89
61345;BME280;47216;42.656;23.232;2023-08-31T11:33:54;93670.38;;;26.35;35.72
61345;BME280;47216;42.656;23.232;2023-08-31T11:36:21;93665.16;;;26.42;35.77
61345;BME280;47216;42.656;23.232;2023-08-31T11:38:50;93668.88;;;26.37;35.29
61345;BME280;47216;42.656;23.232;2023-08-31T11:41:16;93665.06;;;26.38;35.71
61345;BME280;47216;42.656;23.232;2023-08-31T11:43:43;93661.56;;;26.54;35.93
61345;BME280;47216;42.656;23.232;2023-08-31T11:46:11;93662.13;;;26.44;37.04
61345;BME280;47216;42.656;23.232;2023-08-31T11:48:38;93659.72;;;26.38;37.67
61345;BME280;47216;42.656;23.232;2023-08-31T11:51:06;93658.19;;;26.37;37.68
61345;BME280;47216;42.656;23.232;2023-08-31T11:53:33;93658.03;;;26.30;37.97
61345;BME280;47216;42.656;23.232;2023-08-31T11:56:03;93656.13;;;26.31;38.27
61345;BME280;47216;42.656;23.232;2023-08-31T11:58:30;93650.72;;;26.27;38.89
61345;BME280;47216;42.656;23.232;2023-08-31T12:00:57;93649.31;;;26.14;38.79
61345;BME280;47216;42.656;23.232;2023-08-31T12:03:25;93652.31;;;26.12;38.93
61345;BME280;47216;42.656;23.232;2023-08-31T12:05:52;93648.25;;;26.18;39.33
61345;BME280;47216;42.656;23.232;2023-08-31T12:08:26;93645.44;;;26.11;38.45
61345;BME280;47216;42.656;23.232;2023-08-31T12:10:53;93646.94;;;26.09;38.59
61345;BME280;47216;42.656;23.232;2023-08-31T12:13:25;93646.84;;;26.05;38.51
61345;BME280;47216;42.656;23.232;2023-08-31T12:15:54;93644.66;;;26.11;38.90
61345;BME280;47216;42.656;23.232;2023-08-31T12:18:21;93641.50;;;26.05;39.31
61345;BME280;47216;42.656;23.232;2023-08-31T12:20:51;93636.38;;;26.16;39.20
61345;BME280;47216;42.656;23.232;2023-08-31T12:23:18;93637.19;;;26.20;39.63
61345;BME280;47216;42.656;23.232;2023-08-31T12:25:48;93631.88;;;26.39;39.56
61345;BME280;47216;42.656;23.232;2023-08-31T12:28:15;93638.97;;;26.51;39.55
61345;BME280;47216;42.656;23.232;2023-08-31T12:30:47;93637.69;;;26.45;38.18
61345;BME280;47216;42.656;23.232;2023-08-31T12:33:14;93632.47;;;26.52;39.14
61345;BME280;47216;42.656;23.232;2023-08-31T12:35:41;93639.31;;;26.50;37.67
61345;BME280;47216;42.656;23.232;2023-08-31T12:38:08;93640.66;;;26.59;37.54
61345;BME280;47216;42.656;23.232;2023-08-31T12:40:35;93639.69;;;26.68;37.60
61345;BME280;47216;42.656;23.232;2023-08-31T12:43:04;93635.19;;;26.72;38.55
61345;BME280;47216;42.656;23.232;2023-08-31T12:45:31;93629.19;;;26.78;37.90
61345;BME280;47216;42.656;23.232;2023-08-31T12:48:00;93633.06;;;26.81;37.99
61345;BME280;47216;42.656;23.232;2023-08-31T12:50:26;93632.28;;;26.80;37.52
61345;BME280;47216;42.656;23.232;2023-08-31T12:52:53;93637.69;;;26.84;37.15
61345;BME280;47216;42.656;23.232;2023-08-31T12:55:20;93639.59;;;26.83;37.21
61345;BME280;47216;42.656;23.232;2023-08-31T12:57:46;93633.19;;;26.88;37.09